Huaquan222 — BSOX — position and weather

sailwx.info

Track history (hours):
 
Tides and Currents Weather Stations Pressure Air Temp Water Temp Dewpoint Dewpoint Depression Visibility Wind Speed Wind Dir Waves Ship Positions

Huaquan222

Last reported at 2014-Oct-25 21:33 UTC. Time now 2014-Oct-25 22:04 UTC.
Position N 22°23' E 113°36'.

Length 67 m; draft 2.1 m.

Type: Dredging. MMSI: 413467440.

Date/timePositionNaut miles runAvg speedWind from/ knotsBaromVisibWave heightAir tempDewpointWater temp
2014-Oct-25 21:33N 22°23' E 113°36'0 0.0
2014-Oct-25 20:33N 22°23' E 113°36'0 0.0
2014-Oct-25 19:31N 22°23' E 113°36'0 0.0
2014-Oct-25 18:33N 22°23' E 113°36'0 0.0
2014-Oct-25 17:33N 22°23' E 113°36'0 0.0
2014-Oct-25 16:33N 22°23' E 113°36'0 0.1
2014-Oct-25 15:33N 22°23' E 113°36'0 0.1
2014-Oct-25 14:26N 22°24' E 113°36'0 0.0
2014-Oct-25 11:27N 22°23' E 113°36'0 0.1
2014-Oct-25 09:15N 22°23' E 113°36'0 0.0
2014-Oct-25 08:28N 22°23' E 113°36'0 0.1
2014-Oct-25 07:33N 22°23' E 113°36'0 0.1
2014-Oct-25 06:30N 22°23' E 113°36'0 0.1
2014-Oct-25 05:28N 22°23' E 113°36'0 0.0
2014-Oct-24 08:31N 22°23' E 113°36'0 0.1
2014-Oct-24 07:28N 22°23' E 113°36'0 0.0
2014-Oct-24 06:30N 22°23' E 113°36'0 0.0
2014-Oct-23 23:19N 22°23' E 113°36'0 0.0
2014-Oct-23 22:33N 22°23' E 113°36'0 0.0
2014-Oct-23 21:19N 22°23' E 113°36'0 0.0
2014-Oct-23 20:33N 22°23' E 113°36'0 0.1
2014-Oct-23 19:30N 22°23' E 113°36'0 0.0
2014-Oct-23 18:33N 22°23' E 113°36'0 0.0
2014-Oct-23 17:33N 22°23' E 113°36'0 0.0
2014-Oct-23 16:33N 22°23' E 113°36'0 0.0
2014-Oct-23 14:33N 22°23' E 113°36'0 0.0
2014-Oct-23 09:19N 22°23' E 113°36'0 0.0
2014-Oct-23 08:04N 22°23' E 113°36'0 0.1
2014-Oct-23 07:30N 22°23' E 113°36'0 0.0
2014-Oct-23 06:33N 22°23' E 113°36'0 0.0
2014-Oct-23 05:32N 22°23' E 113°36'0 0.0
2014-Oct-23 03:10N 22°23' E 113°36'0 0.0
2014-Oct-23 00:11N 22°24' E 113°36'0 0.0
2014-Oct-22 16:17N 22°23' E 113°36'0 0.1
2014-Oct-22 15:28N 22°23' E 113°36'0 0.0
2014-Oct-22 13:30N 22°23' E 113°36'0 0.0
2014-Oct-22 10:13N 22°23' E 113°36'0 0.0
2014-Oct-22 08:27N 22°23' E 113°36'0 0.0
2014-Oct-22 07:33N 22°23' E 113°36'0 0.1
2014-Oct-22 06:33N 22°23' E 113°36'0 0.0
2014-Oct-22 05:31N 22°23' E 113°36'2 2.3
2014-Oct-22 04:32N 22°22' E 113°38'4 4.1
2014-Oct-22 03:33N 22°20' E 113°42'5 4.8
2014-Oct-22 02:33N 22°18' E 113°47'3 2.7
2014-Oct-22 01:32N 22°18' E 113°49'0 0.0
2014-Oct-22 00:33N 22°18' E 113°49'0 0.0
2014-Oct-21 23:32N 22°18' E 113°49'0 0.0
2014-Oct-21 22:31N 22°18' E 113°49'0 0.0
2014-Oct-21 21:33N 22°18' E 113°49'0 0.0
2014-Oct-21 20:33N 22°18' E 113°49'0 0.0
2014-Oct-21 19:29N 22°18' E 113°49'0 0.0
2014-Oct-21 18:07N 22°18' E 113°49'0 0.0
2014-Oct-21 17:33N 22°18' E 113°49'1 0.4
2014-Oct-21 16:05N 22°17' E 113°49'0 0.0
2014-Oct-21 15:33N 22°17' E 113°49'0 0.0
2014-Oct-21 14:33N 22°17' E 113°49'0 0.0
2014-Oct-21 13:33N 22°17' E 113°49'0 0.0
2014-Oct-21 12:33N 22°17' E 113°49'1 0.7
2014-Oct-21 11:33N 22°18' E 113°49'0 0.0
2014-Oct-21 10:32N 22°18' E 113°49'0 0.0
2014-Oct-21 09:33N 22°18' E 113°49'0 0.1
2014-Oct-21 08:32N 22°18' E 113°49'0 0.1
2014-Oct-21 07:33N 22°18' E 113°49'0 0.0
2014-Oct-21 06:33N 22°18' E 113°49'0 0.0
2014-Oct-21 05:33N 22°18' E 113°49'0 0.0
2014-Oct-21 04:33N 22°18' E 113°49'0 0.0
2014-Oct-21 03:33N 22°18' E 113°49'0 0.0
2014-Oct-21 02:33N 22°18' E 113°49'0 0.0
2014-Oct-21 01:33N 22°18' E 113°49'0 0.1
2014-Oct-21 00:33N 22°18' E 113°49'0 0.1
2014-Oct-20 23:32N 22°18' E 113°49'0 0.0
2014-Oct-20 22:33N 22°18' E 113°49'0 0.0
2014-Oct-20 21:33N 22°18' E 113°49'0 0.1
2014-Oct-20 20:31N 22°18' E 113°49'0 0.1
2014-Oct-20 19:33N 22°18' E 113°49'0 0.0
2014-Oct-20 18:33N 22°18' E 113°49'0 0.0
2014-Oct-20 17:33N 22°18' E 113°49'0 0.0
2014-Oct-20 16:33N 22°18' E 113°49'0 0.0
2014-Oct-20 15:33N 22°18' E 113°49'0 0.1
2014-Oct-20 14:33N 22°18' E 113°49'0 0.1
2014-Oct-20 13:33N 22°18' E 113°49'0 0.0
2014-Oct-20 12:33N 22°18' E 113°49'0 0.0
2014-Oct-20 11:33N 22°18' E 113°49'0 0.0
2014-Oct-20 10:33N 22°18' E 113°49'0 0.0
2014-Oct-20 09:21N 22°18' E 113°49'0 0.1
2014-Oct-20 08:33N 22°18' E 113°49'0 0.1
2014-Oct-20 07:33N 22°18' E 113°49'0 0.0
2014-Oct-20 06:31N 22°18' E 113°49'0 0.0
2014-Oct-20 05:33N 22°18' E 113°49'0 0.0
2014-Oct-20 04:33N 22°18' E 113°49'0 0.1
2014-Oct-20 03:31N 22°18' E 113°49'0 0.1
2014-Oct-20 02:33N 22°18' E 113°49'0 0.0
2014-Oct-20 01:33N 22°18' E 113°49'0 0.0
2014-Oct-20 00:33N 22°18' E 113°49'0 0.1
2014-Oct-19 23:33N 22°18' E 113°49'0 0.1
2014-Oct-19 22:33N 22°18' E 113°49'0 0.1
2014-Oct-19 21:33N 22°18' E 113°49'0 0.0
2014-Oct-19 20:33N 22°18' E 113°49'0 0.0
2014-Oct-19 19:33N 22°18' E 113°49'0 0.0
2014-Oct-19 18:33N 22°18' E 113°49'0 0.0
2014-Oct-19 17:33N 22°18' E 113°49'0 0.0
2014-Oct-19 16:33N 22°18' E 113°49'0 0.0
2014-Oct-19 15:33N 22°18' E 113°49'0 0.0
2014-Oct-19 14:33N 22°18' E 113°49'0 0.0
2014-Oct-19 13:33N 22°18' E 113°49'0 0.0
2014-Oct-19 12:32N 22°18' E 113°49'0 0.1
2014-Oct-19 11:33N 22°18' E 113°49'0 0.0
2014-Oct-19 10:33N 22°18' E 113°49'0 0.1
2014-Oct-19 09:33N 22°18' E 113°49'0 0.1
2014-Oct-19 08:27N 22°18' E 113°49'0 0.0
2014-Oct-19 07:33N 22°18' E 113°49'0 0.1
2014-Oct-19 06:33N 22°17' E 113°49'0 0.1
2014-Oct-19 05:33N 22°17' E 113°49'0 0.0
2014-Oct-19 04:31N 22°17' E 113°49'0 0.0
2014-Oct-19 03:32N 22°17' E 113°49'0 0.0
2014-Oct-19 02:33N 22°17' E 113°49'0 0.1
2014-Oct-19 01:33N 22°17' E 113°49'0 0.0
2014-Oct-19 00:33N 22°17' E 113°49'0 0.0
2014-Oct-18 23:33N 22°17' E 113°49'0 0.0
2014-Oct-18 22:33N 22°17' E 113°49'0 0.0
2014-Oct-18 21:33N 22°18' E 113°49'0 0.0
2014-Oct-18 20:33N 22°18' E 113°49'0 0.0
2014-Oct-18 19:33N 22°18' E 113°49'0 0.0
2014-Oct-18 18:33N 22°18' E 113°49'0 0.0
2014-Oct-18 17:33N 22°17' E 113°49'0 0.0
2014-Oct-18 16:32N 22°17' E 113°49'0 0.0
2014-Oct-18 15:33N 22°18' E 113°49'0 0.0
2014-Oct-18 14:33N 22°17' E 113°49'0 0.0
2014-Oct-18 13:33N 22°18' E 113°49'0 0.0
2014-Oct-18 12:33N 22°18' E 113°49'0 0.1
2014-Oct-18 11:33N 22°18' E 113°49'0 0.0
2014-Oct-18 10:33N 22°18' E 113°49'0 0.0
2014-Oct-18 09:33N 22°18' E 113°49'0 0.0
2014-Oct-18 08:33N 22°18' E 113°49'0 0.0
2014-Oct-18 07:32N 22°18' E 113°49'0 0.1
2014-Oct-18 06:33N 22°17' E 113°49'0 0.1
2014-Oct-18 05:33N 22°17' E 113°49'0 0.0
2014-Oct-18 04:33N 22°17' E 113°49'0 0.0
2014-Oct-18 03:33N 22°17' E 113°49'0 0.0
2014-Oct-18 02:33N 22°17' E 113°49'0 0.0
2014-Oct-18 01:33N 22°17' E 113°49'0 0.1
2014-Oct-18 00:32N 22°17' E 113°49'0 0.1
2014-Oct-17 23:33N 22°17' E 113°49'0 0.1
2014-Oct-17 22:33N 22°17' E 113°49'0 0.1
2014-Oct-17 21:32N 22°17' E 113°49'0 0.0
2014-Oct-17 20:33N 22°17' E 113°49'0 0.1
2014-Oct-17 19:31N 22°18' E 113°49'0 0.1
2014-Oct-17 18:33N 22°18' E 113°49'0 0.0
2014-Oct-17 17:33N 22°18' E 113°49'0 0.0
2014-Oct-17 16:30N 22°18' E 113°49'0 0.0
2014-Oct-17 15:33N 22°18' E 113°49'0 0.0
2014-Oct-17 14:33N 22°18' E 113°49'0 0.0
2014-Oct-17 13:33N 22°18' E 113°49'0 0.1
2014-Oct-17 12:33N 22°18' E 113°49'0 0.0
2014-Oct-17 11:33N 22°18' E 113°49'0 0.0
2014-Oct-17 10:33N 22°18' E 113°49'0 0.0
2014-Oct-17 09:33N 22°18' E 113°49'0 0.0
2014-Oct-17 08:33N 22°18' E 113°49'0 0.0
2014-Oct-17 07:33N 22°18' E 113°49'0 0.1
2014-Oct-17 06:33N 22°17' E 113°49'0 0.0
2014-Oct-17 05:33N 22°17' E 113°49'0 0.0
2014-Oct-17 04:33N 22°17' E 113°49'0 0.0
2014-Oct-17 03:33N 22°17' E 113°49'0 0.0
2014-Oct-17 02:33N 22°17' E 113°49'0 0.0
2014-Oct-17 01:34N 22°17' E 113°49'0 0.0
2014-Oct-17 00:34N 22°17' E 113°49'0 0.0
2014-Oct-16 23:34N 22°17' E 113°49'0 0.0
2014-Oct-16 22:34N 22°17' E 113°49'0 0.0
2014-Oct-16 10:33N 22°17' E 113°49'0 0.0
2014-Oct-16 09:33N 22°17' E 113°49'1 0.5
2014-Oct-16 08:31N 22°18' E 113°49'0 0.0
2014-Oct-16 07:33N 22°18' E 113°49'0 0.1
2014-Oct-16 06:33N 22°18' E 113°49'0 0.1
2014-Oct-16 05:29N 22°17' E 113°49'0 0.0
2014-Oct-16 04:30N 22°17' E 113°49'0 0.5
2014-Oct-16 03:33N 22°17' E 113°49'0 0.1
2014-Oct-16 02:33N 22°17' E 113°49'0 0.0
2014-Oct-16 01:33N 22°17' E 113°49'0 0.0
2014-Oct-16 00:33N 22°17' E 113°49'0 0.0
2014-Oct-15 23:29N 22°17' E 113°49'0 0.0
2014-Oct-15 22:32N 22°17' E 113°49'  
Track history (hours):
 
Tides and Currents Weather Stations Pressure Air Temp Water Temp Dewpoint Dewpoint Depression Visibility Wind Speed Wind Dir Waves Ship Positions

Huaquan222

Last reported at 2014-Oct-25 21:33 UTC. Time now 2014-Oct-25 22:04 UTC.
Position N 22°23' E 113°36'.

Length 67 m; draft 2.1 m.

Type: Dredging. MMSI: 413467440.

Date/timePositionNaut miles runAvg speedWind from/ knotsBaromVisibWave heightAir tempDewpointWater temp
2014-Oct-25 21:33N 22°23' E 113°36'0 0.0
2014-Oct-25 20:33N 22°23' E 113°36'0 0.0
2014-Oct-25 19:31N 22°23' E 113°36'0 0.0
2014-Oct-25 18:33N 22°23' E 113°36'0 0.0
2014-Oct-25 17:33N 22°23' E 113°36'0 0.0
2014-Oct-25 16:33N 22°23' E 113°36'0 0.1
2014-Oct-25 15:33N 22°23' E 113°36'0 0.1
2014-Oct-25 14:26N 22°24' E 113°36'0 0.0
2014-Oct-25 11:27N 22°23' E 113°36'0 0.1
2014-Oct-25 09:15N 22°23' E 113°36'0 0.0
2014-Oct-25 08:28N 22°23' E 113°36'0 0.1
2014-Oct-25 07:33N 22°23' E 113°36'0 0.1
2014-Oct-25 06:30N 22°23' E 113°36'0 0.1
2014-Oct-25 05:28N 22°23' E 113°36'0 0.0
2014-Oct-24 08:31N 22°23' E 113°36'0 0.1
2014-Oct-24 07:28N 22°23' E 113°36'0 0.0
2014-Oct-24 06:30N 22°23' E 113°36'0 0.0
2014-Oct-23 23:19N 22°23' E 113°36'0 0.0
2014-Oct-23 22:33N 22°23' E 113°36'0 0.0
2014-Oct-23 21:19N 22°23' E 113°36'0 0.0
2014-Oct-23 20:33N 22°23' E 113°36'0 0.1
2014-Oct-23 19:30N 22°23' E 113°36'0 0.0
2014-Oct-23 18:33N 22°23' E 113°36'0 0.0
2014-Oct-23 17:33N 22°23' E 113°36'0 0.0
2014-Oct-23 16:33N 22°23' E 113°36'0 0.0
2014-Oct-23 14:33N 22°23' E 113°36'0 0.0
2014-Oct-23 09:19N 22°23' E 113°36'0 0.0
2014-Oct-23 08:04N 22°23' E 113°36'0 0.1
2014-Oct-23 07:30N 22°23' E 113°36'0 0.0
2014-Oct-23 06:33N 22°23' E 113°36'0 0.0
2014-Oct-23 05:32N 22°23' E 113°36'0 0.0
2014-Oct-23 03:10N 22°23' E 113°36'0 0.0
2014-Oct-23 00:11N 22°24' E 113°36'0 0.0
2014-Oct-22 16:17N 22°23' E 113°36'0 0.1
2014-Oct-22 15:28N 22°23' E 113°36'0 0.0
2014-Oct-22 13:30N 22°23' E 113°36'0 0.0
2014-Oct-22 10:13N 22°23' E 113°36'0 0.0
2014-Oct-22 08:27N 22°23' E 113°36'0 0.0
2014-Oct-22 07:33N 22°23' E 113°36'0 0.1
2014-Oct-22 06:33N 22°23' E 113°36'0 0.0
2014-Oct-22 05:31N 22°23' E 113°36'2 2.3
2014-Oct-22 04:32N 22°22' E 113°38'4 4.1
2014-Oct-22 03:33N 22°20' E 113°42'5 4.8
2014-Oct-22 02:33N 22°18' E 113°47'3 2.7
2014-Oct-22 01:32N 22°18' E 113°49'0 0.0
2014-Oct-22 00:33N 22°18' E 113°49'0 0.0
2014-Oct-21 23:32N 22°18' E 113°49'0 0.0
2014-Oct-21 22:31N 22°18' E 113°49'0 0.0
2014-Oct-21 21:33N 22°18' E 113°49'0 0.0
2014-Oct-21 20:33N 22°18' E 113°49'0 0.0
2014-Oct-21 19:29N 22°18' E 113°49'0 0.0
2014-Oct-21 18:07N 22°18' E 113°49'0 0.0
2014-Oct-21 17:33N 22°18' E 113°49'1 0.4
2014-Oct-21 16:05N 22°17' E 113°49'0 0.0
2014-Oct-21 15:33N 22°17' E 113°49'0 0.0
2014-Oct-21 14:33N 22°17' E 113°49'0 0.0
2014-Oct-21 13:33N 22°17' E 113°49'0 0.0
2014-Oct-21 12:33N 22°17' E 113°49'1 0.7
2014-Oct-21 11:33N 22°18' E 113°49'0 0.0
2014-Oct-21 10:32N 22°18' E 113°49'0 0.0
2014-Oct-21 09:33N 22°18' E 113°49'0 0.1
2014-Oct-21 08:32N 22°18' E 113°49'0 0.1
2014-Oct-21 07:33N 22°18' E 113°49'0 0.0
2014-Oct-21 06:33N 22°18' E 113°49'0 0.0
2014-Oct-21 05:33N 22°18' E 113°49'0 0.0
2014-Oct-21 04:33N 22°18' E 113°49'0 0.0
2014-Oct-21 03:33N 22°18' E 113°49'0 0.0
2014-Oct-21 02:33N 22°18' E 113°49'0 0.0
2014-Oct-21 01:33N 22°18' E 113°49'0 0.1
2014-Oct-21 00:33N 22°18' E 113°49'0 0.1
2014-Oct-20 23:32N 22°18' E 113°49'0 0.0
2014-Oct-20 22:33N 22°18' E 113°49'0 0.0
2014-Oct-20 21:33N 22°18' E 113°49'0 0.1
2014-Oct-20 20:31N 22°18' E 113°49'0 0.1
2014-Oct-20 19:33N 22°18' E 113°49'0 0.0
2014-Oct-20 18:33N 22°18' E 113°49'0 0.0
2014-Oct-20 17:33N 22°18' E 113°49'0 0.0
2014-Oct-20 16:33N 22°18' E 113°49'0 0.0
2014-Oct-20 15:33N 22°18' E 113°49'0 0.1
2014-Oct-20 14:33N 22°18' E 113°49'0 0.1
2014-Oct-20 13:33N 22°18' E 113°49'0 0.0
2014-Oct-20 12:33N 22°18' E 113°49'0 0.0
2014-Oct-20 11:33N 22°18' E 113°49'0 0.0
2014-Oct-20 10:33N 22°18' E 113°49'0 0.0
2014-Oct-20 09:21N 22°18' E 113°49'0 0.1
2014-Oct-20 08:33N 22°18' E 113°49'0 0.1
2014-Oct-20 07:33N 22°18' E 113°49'0 0.0
2014-Oct-20 06:31N 22°18' E 113°49'0 0.0
2014-Oct-20 05:33N 22°18' E 113°49'0 0.0
2014-Oct-20 04:33N 22°18' E 113°49'0 0.1
2014-Oct-20 03:31N 22°18' E 113°49'0 0.1
2014-Oct-20 02:33N 22°18' E 113°49'0 0.0
2014-Oct-20 01:33N 22°18' E 113°49'0 0.0
2014-Oct-20 00:33N 22°18' E 113°49'0 0.1
2014-Oct-19 23:33N 22°18' E 113°49'0 0.1
2014-Oct-19 22:33N 22°18' E 113°49'0 0.1
2014-Oct-19 21:33N 22°18' E 113°49'0 0.0
2014-Oct-19 20:33N 22°18' E 113°49'0 0.0
2014-Oct-19 19:33N 22°18' E 113°49'0 0.0
2014-Oct-19 18:33N 22°18' E 113°49'0 0.0
2014-Oct-19 17:33N 22°18' E 113°49'0 0.0
2014-Oct-19 16:33N 22°18' E 113°49'0 0.0
2014-Oct-19 15:33N 22°18' E 113°49'0 0.0
2014-Oct-19 14:33N 22°18' E 113°49'0 0.0
2014-Oct-19 13:33N 22°18' E 113°49'0 0.0
2014-Oct-19 12:32N 22°18' E 113°49'0 0.1
2014-Oct-19 11:33N 22°18' E 113°49'0 0.0
2014-Oct-19 10:33N 22°18' E 113°49'0 0.1
2014-Oct-19 09:33N 22°18' E 113°49'0 0.1
2014-Oct-19 08:27N 22°18' E 113°49'0 0.0
2014-Oct-19 07:33N 22°18' E 113°49'0 0.1
2014-Oct-19 06:33N 22°17' E 113°49'0 0.1
2014-Oct-19 05:33N 22°17' E 113°49'0 0.0
2014-Oct-19 04:31N 22°17' E 113°49'0 0.0
2014-Oct-19 03:32N 22°17' E 113°49'0 0.0
2014-Oct-19 02:33N 22°17' E 113°49'0 0.1
2014-Oct-19 01:33N 22°17' E 113°49'0 0.0
2014-Oct-19 00:33N 22°17' E 113°49'0 0.0
2014-Oct-18 23:33N 22°17' E 113°49'0 0.0
2014-Oct-18 22:33N 22°17' E 113°49'0 0.0
2014-Oct-18 21:33N 22°18' E 113°49'0 0.0
2014-Oct-18 20:33N 22°18' E 113°49'0 0.0
2014-Oct-18 19:33N 22°18' E 113°49'0 0.0
2014-Oct-18 18:33N 22°18' E 113°49'0 0.0
2014-Oct-18 17:33N 22°17' E 113°49'0 0.0
2014-Oct-18 16:32N 22°17' E 113°49'0 0.0
2014-Oct-18 15:33N 22°18' E 113°49'0 0.0
2014-Oct-18 14:33N 22°17' E 113°49'0 0.0
2014-Oct-18 13:33N 22°18' E 113°49'0 0.0
2014-Oct-18 12:33N 22°18' E 113°49'0 0.1
2014-Oct-18 11:33N 22°18' E 113°49'0 0.0
2014-Oct-18 10:33N 22°18' E 113°49'0 0.0
2014-Oct-18 09:33N 22°18' E 113°49'0 0.0
2014-Oct-18 08:33N 22°18' E 113°49'0 0.0
2014-Oct-18 07:32N 22°18' E 113°49'0 0.1
2014-Oct-18 06:33N 22°17' E 113°49'0 0.1
2014-Oct-18 05:33N 22°17' E 113°49'0 0.0
2014-Oct-18 04:33N 22°17' E 113°49'0 0.0
2014-Oct-18 03:33N 22°17' E 113°49'0 0.0
2014-Oct-18 02:33N 22°17' E 113°49'0 0.0
2014-Oct-18 01:33N 22°17' E 113°49'0 0.1
2014-Oct-18 00:32N 22°17' E 113°49'0 0.1
2014-Oct-17 23:33N 22°17' E 113°49'0 0.1
2014-Oct-17 22:33N 22°17' E 113°49'0 0.1
2014-Oct-17 21:32N 22°17' E 113°49'0 0.0
2014-Oct-17 20:33N 22°17' E 113°49'0 0.1
2014-Oct-17 19:31N 22°18' E 113°49'0 0.1
2014-Oct-17 18:33N 22°18' E 113°49'0 0.0
2014-Oct-17 17:33N 22°18' E 113°49'0 0.0
2014-Oct-17 16:30N 22°18' E 113°49'0 0.0
2014-Oct-17 15:33N 22°18' E 113°49'0 0.0
2014-Oct-17 14:33N 22°18' E 113°49'0 0.0
2014-Oct-17 13:33N 22°18' E 113°49'0 0.1
2014-Oct-17 12:33N 22°18' E 113°49'0 0.0
2014-Oct-17 11:33N 22°18' E 113°49'0 0.0
2014-Oct-17 10:33N 22°18' E 113°49'0 0.0
2014-Oct-17 09:33N 22°18' E 113°49'0 0.0
2014-Oct-17 08:33N 22°18' E 113°49'0 0.0
2014-Oct-17 07:33N 22°18' E 113°49'0 0.1
2014-Oct-17 06:33N 22°17' E 113°49'0 0.0
2014-Oct-17 05:33N 22°17' E 113°49'0 0.0
2014-Oct-17 04:33N 22°17' E 113°49'0 0.0
2014-Oct-17 03:33N 22°17' E 113°49'0 0.0
2014-Oct-17 02:33N 22°17' E 113°49'0 0.0
2014-Oct-17 01:34N 22°17' E 113°49'0 0.0
2014-Oct-17 00:34N 22°17' E 113°49'0 0.0
2014-Oct-16 23:34N 22°17' E 113°49'0 0.0
2014-Oct-16 22:34N 22°17' E 113°49'0 0.0
2014-Oct-16 10:33N 22°17' E 113°49'0 0.0
2014-Oct-16 09:33N 22°17' E 113°49'1 0.5
2014-Oct-16 08:31N 22°18' E 113°49'0 0.0
2014-Oct-16 07:33N 22°18' E 113°49'0 0.1
2014-Oct-16 06:33N 22°18' E 113°49'0 0.1
2014-Oct-16 05:29N 22°17' E 113°49'0 0.0
2014-Oct-16 04:30N 22°17' E 113°49'0 0.5
2014-Oct-16 03:33N 22°17' E 113°49'0 0.1
2014-Oct-16 02:33N 22°17' E 113°49'0 0.0
2014-Oct-16 01:33N 22°17' E 113°49'0 0.0
2014-Oct-16 00:33N 22°17' E 113°49'0 0.0
2014-Oct-15 23:29N 22°17' E 113°49'0 0.0
2014-Oct-15 22:32N 22°17' E 113°49'  

Dump ship's entire track history